sensor_id;sensor_type;location;lat;lon;timestamp;P1;durP1;ratioP1;P2;durP2;ratioP2
38725;SDS011;24474;48.906;8.808;2022-10-19T00:00:43;8.75;;;6.97;;
38725;SDS011;24474;48.906;8.808;2022-10-19T00:03:09;6.78;;;6.07;;
38725;SDS011;24474;48.906;8.808;2022-10-19T00:05:34;9.32;;;6.57;;
38725;SDS011;24474;48.906;8.808;2022-10-19T00:08:01;10.02;;;7.00;;
38725;SDS011;24474;48.906;8.808;2022-10-19T00:10:27;10.05;;;6.97;;
38725;SDS011;24474;48.906;8.808;2022-10-19T00:12:54;9.82;;;6.95;;
38725;SDS011;24474;48.906;8.808;2022-10-19T00:15:20;7.70;;;6.53;;
38725;SDS011;24474;48.906;8.808;2022-10-19T00:17:45;9.95;;;6.78;;
38725;SDS011;24474;48.906;8.808;2022-10-19T00:20:11;9.13;;;7.00;;
38725;SDS011;24474;48.906;8.808;2022-10-19T00:22:38;8.50;;;6.40;;
38725;SDS011;24474;48.906;8.808;2022-10-19T00:25:04;12.38;;;7.90;;
38725;SDS011;24474;48.906;8.808;2022-10-19T00:27:30;10.40;;;8.75;;
38725;SDS011;24474;48.906;8.808;2022-10-19T00:29:55;11.63;;;10.35;;
38725;SDS011;24474;48.906;8.808;2022-10-19T00:32:21;11.68;;;8.98;;
38725;SDS011;24474;48.906;8.808;2022-10-19T00:34:48;11.10;;;8.77;;
38725;SDS011;24474;48.906;8.808;2022-10-19T00:37:13;9.43;;;7.55;;
38725;SDS011;24474;48.906;8.808;2022-10-19T00:39:39;12.18;;;6.97;;
38725;SDS011;24474;48.906;8.808;2022-10-19T00:42:05;16.77;;;10.02;;
38725;SDS011;24474;48.906;8.808;2022-10-19T00:47:21;169.23;;;15.63;;
38725;SDS011;24474;48.906;8.808;2022-10-19T00:49:48;45.45;;;11.73;;
38725;SDS011;24474;48.906;8.808;2022-10-19T00:52:15;118.45;;;11.07;;
38725;SDS011;24474;48.906;8.808;2022-10-19T00:54:46;52.53;;;10.70;;
38725;SDS011;24474;48.906;8.808;2022-10-19T00:57:14;31.23;;;9.88;;
38725;SDS011;24474;48.906;8.808;2022-10-19T00:59:40;16.45;;;8.85;;
38725;SDS011;24474;48.906;8.808;2022-10-19T01:02:08;11.23;;;9.80;;
38725;SDS011;24474;48.906;8.808;2022-10-19T01:04:35;13.85;;;10.93;;
38725;SDS011;24474;48.906;8.808;2022-10-19T01:07:05;12.25;;;10.35;;
38725;SDS011;24474;48.906;8.808;2022-10-19T01:09:32;12.18;;;10.18;;
38725;SDS011;24474;48.906;8.808;2022-10-19T01:29:24;11.43;;;9.27;;
38725;SDS011;24474;48.906;8.808;2022-10-19T01:32:21;13.00;;;11.07;;
38725;SDS011;24474;48.906;8.808;2022-10-19T01:34:56;17.23;;;11.45;;
38725;SDS011;24474;48.906;8.808;2022-10-19T01:38:13;16.38;;;11.13;;
38725;SDS011;24474;48.906;8.808;2022-10-19T01:45:59;18.48;;;13.15;;
38725;SDS011;24474;48.906;8.808;2022-10-19T01:48:53;20.58;;;14.23;;
38725;SDS011;24474;48.906;8.808;2022-10-19T01:51:25;26.05;;;17.55;;
38725;SDS011;24474;48.906;8.808;2022-10-19T01:54:00;33.92;;;19.25;;
38725;SDS011;24474;48.906;8.808;2022-10-19T01:58:58;30.63;;;19.48;;
38725;SDS011;24474;48.906;8.808;2022-10-19T02:01:26;30.08;;;19.92;;
38725;SDS011;24474;48.906;8.808;2022-10-19T02:03:56;29.55;;;19.10;;
38725;SDS011;24474;48.906;8.808;2022-10-19T02:06:23;28.95;;;20.40;;
38725;SDS011;24474;48.906;8.808;2022-10-19T02:08:50;29.48;;;18.83;;
38725;SDS011;24474;48.906;8.808;2022-10-19T02:11:17;37.78;;;21.00;;
38725;SDS011;24474;48.906;8.808;2022-10-19T02:13:44;31.67;;;20.92;;
38725;SDS011;24474;48.906;8.808;2022-10-19T02:16:24;33.20;;;21.42;;
38725;SDS011;24474;48.906;8.808;2022-10-19T02:18:54;32.33;;;22.00;;
38725;SDS011;24474;48.906;8.808;2022-10-19T02:21:25;35.97;;;23.20;;
38725;SDS011;24474;48.906;8.808;2022-10-19T02:23:52;42.38;;;25.13;;
38725;SDS011;24474;48.906;8.808;2022-10-19T02:26:18;48.70;;;27.10;;
38725;SDS011;24474;48.906;8.808;2022-10-19T02:28:45;37.70;;;25.48;;
38725;SDS011;24474;48.906;8.808;2022-10-19T02:31:11;37.00;;;24.33;;
38725;SDS011;24474;48.906;8.808;2022-10-19T02:33:37;39.22;;;24.02;;
38725;SDS011;24474;48.906;8.808;2022-10-19T02:36:03;36.33;;;24.02;;
38725;SDS011;24474;48.906;8.808;2022-10-19T02:38:29;38.47;;;25.00;;
38725;SDS011;24474;48.906;8.808;2022-10-19T02:43:55;31.25;;;23.05;;
38725;SDS011;24474;48.906;8.808;2022-10-19T02:46:43;33.20;;;24.33;;
38725;SDS011;24474;48.906;8.808;2022-10-19T02:49:11;30.38;;;23.70;;
38725;SDS011;24474;48.906;8.808;2022-10-19T02:51:39;31.20;;;23.40;;
38725;SDS011;24474;48.906;8.808;2022-10-19T02:54:23;27.90;;;22.13;;
38725;SDS011;24474;48.906;8.808;2022-10-19T02:56:50;28.17;;;22.27;;
38725;SDS011;24474;48.906;8.808;2022-10-19T02:59:16;30.13;;;23.48;;
38725;SDS011;24474;48.906;8.808;2022-10-19T03:01:42;31.67;;;23.05;;
38725;SDS011;24474;48.906;8.808;2022-10-19T03:04:08;32.65;;;24.83;;
38725;SDS011;24474;48.906;8.808;2022-10-19T03:06:36;37.00;;;25.80;;
38725;SDS011;24474;48.906;8.808;2022-10-19T03:09:02;31.17;;;24.42;;
38725;SDS011;24474;48.906;8.808;2022-10-19T03:11:29;28.48;;;23.15;;
38725;SDS011;24474;48.906;8.808;2022-10-19T03:13:56;32.05;;;24.10;;
38725;SDS011;24474;48.906;8.808;2022-10-19T03:16:21;39.03;;;27.05;;
38725;SDS011;24474;48.906;8.808;2022-10-19T03:18:47;32.00;;;24.05;;
38725;SDS011;24474;48.906;8.808;2022-10-19T03:21:15;31.30;;;23.65;;
38725;SDS011;24474;48.906;8.808;2022-10-19T03:23:41;30.42;;;22.55;;
38725;SDS011;24474;48.906;8.808;2022-10-19T03:26:07;32.30;;;25.13;;
38725;SDS011;24474;48.906;8.808;2022-10-19T03:28:35;31.15;;;23.15;;
38725;SDS011;24474;48.906;8.808;2022-10-19T03:31:04;29.80;;;22.95;;
38725;SDS011;24474;48.906;8.808;2022-10-19T03:33:30;27.05;;;20.92;;
38725;SDS011;24474;48.906;8.808;2022-10-19T03:38:43;29.10;;;22.27;;
38725;SDS011;24474;48.906;8.808;2022-10-19T03:41:09;31.50;;;24.58;;
38725;SDS011;24474;48.906;8.808;2022-10-19T03:43:35;32.38;;;23.98;;
38725;SDS011;24474;48.906;8.808;2022-10-19T03:46:02;31.08;;;23.58;;
38725;SDS011;24474;48.906;8.808;2022-10-19T03:48:28;29.95;;;22.08;;
38725;SDS011;24474;48.906;8.808;2022-10-19T03:51:01;24.67;;;19.23;;
38725;SDS011;24474;48.906;8.808;2022-10-19T03:53:30;23.45;;;16.65;;
38725;SDS011;24474;48.906;8.808;2022-10-19T03:56:15;27.73;;;19.42;;
38725;SDS011;24474;48.906;8.808;2022-10-19T03:58:44;25.70;;;20.67;;
38725;SDS011;24474;48.906;8.808;2022-10-19T04:01:12;30.02;;;22.08;;
38725;SDS011;24474;48.906;8.808;2022-10-19T04:03:52;25.92;;;20.27;;
38725;SDS011;24474;48.906;8.808;2022-10-19T04:06:19;25.52;;;20.25;;
38725;SDS011;24474;48.906;8.808;2022-10-19T04:08:51;26.13;;;19.52;;
38725;SDS011;24474;48.906;8.808;2022-10-19T04:11:22;26.42;;;18.58;;
38725;SDS011;24474;48.906;8.808;2022-10-19T04:13:51;24.48;;;18.67;;
38725;SDS011;24474;48.906;8.808;2022-10-19T04:16:19;20.35;;;16.13;;
38725;SDS011;24474;48.906;8.808;2022-10-19T04:18:46;23.73;;;16.33;;
38725;SDS011;24474;48.906;8.808;2022-10-19T04:23:47;28.95;;;20.13;;
38725;SDS011;24474;48.906;8.808;2022-10-19T04:26:13;21.33;;;16.05;;
38725;SDS011;24474;48.906;8.808;2022-10-19T04:28:39;28.92;;;20.63;;
38725;SDS011;24474;48.906;8.808;2022-10-19T04:31:05;25.08;;;19.63;;
38725;SDS011;24474;48.906;8.808;2022-10-19T04:33:34;25.70;;;18.38;;
38725;SDS011;24474;48.906;8.808;2022-10-19T04:36:02;31.13;;;21.50;;
38725;SDS011;24474;48.906;8.808;2022-10-19T04:38:29;26.40;;;18.38;;
38725;SDS011;24474;48.906;8.808;2022-10-19T04:41:06;24.85;;;18.55;;
38725;SDS011;24474;48.906;8.808;2022-10-19T04:43:33;25.63;;;18.35;;
38725;SDS011;24474;48.906;8.808;2022-10-19T04:46:05;24.60;;;18.27;;
38725;SDS011;24474;48.906;8.808;2022-10-19T04:48:34;23.55;;;17.60;;
38725;SDS011;24474;48.906;8.808;2022-10-19T04:51:03;23.10;;;18.13;;
38725;SDS011;24474;48.906;8.808;2022-10-19T04:53:31;21.98;;;17.25;;
38725;SDS011;24474;48.906;8.808;2022-10-19T04:56:05;21.92;;;16.35;;
38725;SDS011;24474;48.906;8.808;2022-10-19T04:58:34;24.30;;;16.77;;
38725;SDS011;24474;48.906;8.808;2022-10-19T05:01:07;26.27;;;17.40;;
38725;SDS011;24474;48.906;8.808;2022-10-19T05:03:38;51.42;;;16.95;;
38725;SDS011;24474;48.906;8.808;2022-10-19T05:06:05;40.40;;;16.30;;
38725;SDS011;24474;48.906;8.808;2022-10-19T05:08:31;26.38;;;13.85;;
38725;SDS011;24474;48.906;8.808;2022-10-19T05:11:02;149.40;;;15.35;;
38725;SDS011;24474;48.906;8.808;2022-10-19T05:13:30;40.10;;;13.73;;
38725;SDS011;24474;48.906;8.808;2022-10-19T05:15:59;25.73;;;13.32;;
38725;SDS011;24474;48.906;8.808;2022-10-19T05:18:25;25.83;;;13.93;;
38725;SDS011;24474;48.906;8.808;2022-10-19T05:21:02;62.92;;;14.38;;
38725;SDS011;24474;48.906;8.808;2022-10-19T05:23:37;36.55;;;14.57;;
38725;SDS011;24474;48.906;8.808;2022-10-19T05:26:08;31.55;;;14.52;;
38725;SDS011;24474;48.906;8.808;2022-10-19T05:28:39;29.95;;;17.23;;
38725;SDS011;24474;48.906;8.808;2022-10-19T05:31:12;35.70;;;20.83;;
38725;SDS011;24474;48.906;8.808;2022-10-19T05:33:39;30.88;;;18.48;;
38725;SDS011;24474;48.906;8.808;2022-10-19T05:36:19;30.95;;;18.80;;
38725;SDS011;24474;48.906;8.808;2022-10-19T05:38:50;30.42;;;19.85;;
38725;SDS011;24474;48.906;8.808;2022-10-19T05:41:19;28.75;;;17.75;;
38725;SDS011;24474;48.906;8.808;2022-10-19T05:43:50;33.83;;;18.33;;
38725;SDS011;24474;48.906;8.808;2022-10-19T05:46:17;29.40;;;17.75;;
38725;SDS011;24474;48.906;8.808;2022-10-19T05:48:45;37.05;;;17.73;;
38725;SDS011;24474;48.906;8.808;2022-10-19T05:51:14;27.67;;;17.15;;
38725;SDS011;24474;48.906;8.808;2022-10-19T05:53:44;44.42;;;16.75;;
38725;SDS011;24474;48.906;8.808;2022-10-19T05:56:15;38.83;;;16.48;;
38725;SDS011;24474;48.906;8.808;2022-10-19T05:58:43;49.10;;;16.10;;
38725;SDS011;24474;48.906;8.808;2022-10-19T06:01:09;34.80;;;16.30;;
38725;SDS011;24474;48.906;8.808;2022-10-19T06:03:34;48.28;;;16.13;;
38725;SDS011;24474;48.906;8.808;2022-10-19T06:06:04;41.92;;;16.70;;
38725;SDS011;24474;48.906;8.808;2022-10-19T06:08:31;46.22;;;15.73;;
38725;SDS011;24474;48.906;8.808;2022-10-19T06:11:05;48.40;;;17.27;;
38725;SDS011;24474;48.906;8.808;2022-10-19T06:13:40;58.13;;;17.85;;
38725;SDS011;24474;48.906;8.808;2022-10-19T06:16:08;73.32;;;17.58;;
38725;SDS011;24474;48.906;8.808;2022-10-19T06:18:38;103.28;;;20.25;;
38725;SDS011;24474;48.906;8.808;2022-10-19T06:21:05;71.47;;;18.08;;
38725;SDS011;24474;48.906;8.808;2022-10-19T06:23:32;77.50;;;18.30;;
38725;SDS011;24474;48.906;8.808;2022-10-19T06:26:00;42.25;;;16.52;;
38725;SDS011;24474;48.906;8.808;2022-10-19T06:28:30;169.82;;;21.52;;
38725;SDS011;24474;48.906;8.808;2022-10-19T06:30:57;96.30;;;16.60;;
38725;SDS011;24474;48.906;8.808;2022-10-19T06:33:23;105.75;;;18.65;;
38725;SDS011;24474;48.906;8.808;2022-10-19T06:35:49;34.97;;;15.73;;
38725;SDS011;24474;48.906;8.808;2022-10-19T06:38:15;53.78;;;16.88;;
38725;SDS011;24474;48.906;8.808;2022-10-19T06:40:41;94.45;;;17.73;;
38725;SDS011;24474;48.906;8.808;2022-10-19T06:43:07;54.22;;;17.25;;
38725;SDS011;24474;48.906;8.808;2022-10-19T06:45:33;65.40;;;17.08;;
38725;SDS011;24474;48.906;8.808;2022-10-19T06:48:01;44.60;;;16.33;;
38725;SDS011;24474;48.906;8.808;2022-10-19T06:50:27;68.90;;;16.98;;
38725;SDS011;24474;48.906;8.808;2022-10-19T06:52:52;26.92;;;16.38;;
38725;SDS011;24474;48.906;8.808;2022-10-19T06:55:18;23.65;;;15.05;;
38725;SDS011;24474;48.906;8.808;2022-10-19T06:57:44;29.55;;;15.13;;
38725;SDS011;24474;48.906;8.808;2022-10-19T07:00:09;28.95;;;15.90;;
38725;SDS011;24474;48.906;8.808;2022-10-19T07:02:36;26.23;;;17.33;;
38725;SDS011;24474;48.906;8.808;2022-10-19T07:05:01;38.45;;;19.38;;
38725;SDS011;24474;48.906;8.808;2022-10-19T07:07:27;24.83;;;16.65;;
38725;SDS011;24474;48.906;8.808;2022-10-19T07:09:52;20.85;;;16.02;;
38725;SDS011;24474;48.906;8.808;2022-10-19T07:12:18;24.50;;;18.42;;
38725;SDS011;24474;48.906;8.808;2022-10-19T07:14:44;24.40;;;18.42;;
38725;SDS011;24474;48.906;8.808;2022-10-19T07:17:12;21.55;;;16.70;;
38725;SDS011;24474;48.906;8.808;2022-10-19T07:19:38;25.15;;;17.55;;
38725;SDS011;24474;48.906;8.808;2022-10-19T07:22:03;25.55;;;19.70;;
38725;SDS011;24474;48.906;8.808;2022-10-19T07:24:29;27.60;;;18.13;;
38725;SDS011;24474;48.906;8.808;2022-10-19T07:26:55;23.55;;;17.65;;
38725;SDS011;24474;48.906;8.808;2022-10-19T07:29:21;23.65;;;17.10;;
38725;SDS011;24474;48.906;8.808;2022-10-19T07:31:47;22.88;;;17.25;;
38725;SDS011;24474;48.906;8.808;2022-10-19T07:34:13;23.08;;;16.85;;
38725;SDS011;24474;48.906;8.808;2022-10-19T07:36:39;21.67;;;17.10;;
38725;SDS011;24474;48.906;8.808;2022-10-19T07:39:09;22.60;;;17.77;;
38725;SDS011;24474;48.906;8.808;2022-10-19T07:41:35;20.17;;;16.88;;
38725;SDS011;24474;48.906;8.808;2022-10-19T07:44:01;22.42;;;17.00;;
38725;SDS011;24474;48.906;8.808;2022-10-19T07:46:28;20.60;;;15.27;;
38725;SDS011;24474;48.906;8.808;2022-10-19T07:48:57;20.50;;;16.10;;
38725;SDS011;24474;48.906;8.808;2022-10-19T07:51:24;30.77;;;21.27;;
38725;SDS011;24474;48.906;8.808;2022-10-19T07:53:49;29.92;;;22.42;;
38725;SDS011;24474;48.906;8.808;2022-10-19T07:56:16;28.00;;;22.23;;
38725;SDS011;24474;48.906;8.808;2022-10-19T07:58:50;27.17;;;20.60;;
38725;SDS011;24474;48.906;8.808;2022-10-19T08:01:18;29.75;;;20.98;;
38725;SDS011;24474;48.906;8.808;2022-10-19T08:03:45;26.83;;;20.75;;
38725;SDS011;24474;48.906;8.808;2022-10-19T08:06:12;27.30;;;20.88;;
38725;SDS011;24474;48.906;8.808;2022-10-19T08:08:40;27.13;;;22.50;;
38725;SDS011;24474;48.906;8.808;2022-10-19T08:13:33;30.55;;;21.98;;
38725;SDS011;24474;48.906;8.808;2022-10-19T08:16:00;26.20;;;20.77;;
38725;SDS011;24474;48.906;8.808;2022-10-19T08:18:28;28.10;;;21.67;;
38725;SDS011;24474;48.906;8.808;2022-10-19T08:20:55;30.08;;;22.50;;
38725;SDS011;24474;48.906;8.808;2022-10-19T08:23:21;25.27;;;19.33;;
38725;SDS011;24474;48.906;8.808;2022-10-19T08:25:51;25.02;;;19.27;;
38725;SDS011;24474;48.906;8.808;2022-10-19T08:28:22;29.13;;;22.33;;
38725;SDS011;24474;48.906;8.808;2022-10-19T08:30:48;27.23;;;21.20;;
38725;SDS011;24474;48.906;8.808;2022-10-19T08:33:14;26.73;;;20.33;;
38725;SDS011;24474;48.906;8.808;2022-10-19T08:35:39;23.55;;;19.27;;
38725;SDS011;24474;48.906;8.808;2022-10-19T08:38:05;28.00;;;23.30;;
38725;SDS011;24474;48.906;8.808;2022-10-19T08:40:30;24.88;;;21.63;;
38725;SDS011;24474;48.906;8.808;2022-10-19T08:42:57;24.98;;;21.13;;
38725;SDS011;24474;48.906;8.808;2022-10-19T08:50:53;22.00;;;19.10;;
38725;SDS011;24474;48.906;8.808;2022-10-19T09:06:48;21.15;;;16.50;;
38725;SDS011;24474;48.906;8.808;2022-10-19T09:09:33;20.20;;;16.63;;
38725;SDS011;24474;48.906;8.808;2022-10-19T09:12:13;19.95;;;16.08;;
38725;SDS011;24474;48.906;8.808;2022-10-19T09:14:56;17.23;;;15.45;;
38725;SDS011;24474;48.906;8.808;2022-10-19T09:17:26;17.42;;;15.50;;
38725;SDS011;24474;48.906;8.808;2022-10-19T09:19:52;16.85;;;15.07;;
38725;SDS011;24474;48.906;8.808;2022-10-19T09:22:20;20.27;;;16.52;;
38725;SDS011;24474;48.906;8.808;2022-10-19T09:24:59;17.85;;;15.98;;
38725;SDS011;24474;48.906;8.808;2022-10-19T09:27:37;17.98;;;15.73;;
38725;SDS011;24474;48.906;8.808;2022-10-19T09:30:13;20.67;;;17.67;;
38725;SDS011;24474;48.906;8.808;2022-10-19T09:32:44;18.17;;;16.27;;
38725;SDS011;24474;48.906;8.808;2022-10-19T09:37:50;16.88;;;15.02;;
38725;SDS011;24474;48.906;8.808;2022-10-19T09:40:16;16.80;;;14.98;;
38725;SDS011;24474;48.906;8.808;2022-10-19T09:42:47;16.95;;;14.52;;
38725;SDS011;24474;48.906;8.808;2022-10-19T09:45:25;17.88;;;16.02;;
38725;SDS011;24474;48.906;8.808;2022-10-19T09:51:25;16.10;;;13.93;;
38725;SDS011;24474;48.906;8.808;2022-10-19T09:54:02;15.40;;;13.63;;
38725;SDS011;24474;48.906;8.808;2022-10-19T09:56:30;15.25;;;13.05;;
38725;SDS011;24474;48.906;8.808;2022-10-19T09:59:04;15.73;;;14.13;;
38725;SDS011;24474;48.906;8.808;2022-10-19T10:01:48;15.93;;;13.90;;
38725;SDS011;24474;48.906;8.808;2022-10-19T10:04:34;18.27;;;13.23;;
38725;SDS011;24474;48.906;8.808;2022-10-19T10:07:00;15.85;;;14.07;;
38725;SDS011;24474;48.906;8.808;2022-10-19T10:09:29;16.02;;;13.73;;
38725;SDS011;24474;48.906;8.808;2022-10-19T10:11:56;15.98;;;13.30;;
38725;SDS011;24474;48.906;8.808;2022-10-19T10:14:34;14.35;;;12.73;;
38725;SDS011;24474;48.906;8.808;2022-10-19T10:17:22;16.95;;;13.32;;
38725;SDS011;24474;48.906;8.808;2022-10-19T10:22:25;16.05;;;12.52;;
38725;SDS011;24474;48.906;8.808;2022-10-19T10:25:01;15.10;;;12.35;;
38725;SDS011;24474;48.906;8.808;2022-10-19T10:27:40;13.50;;;11.18;;
38725;SDS011;24474;48.906;8.808;2022-10-19T10:30:08;13.45;;;11.50;;
38725;SDS011;24474;48.906;8.808;2022-10-19T10:32:48;17.70;;;11.20;;
38725;SDS011;24474;48.906;8.808;2022-10-19T10:35:17;14.70;;;11.27;;
38725;SDS011;24474;48.906;8.808;2022-10-19T10:37:44;17.58;;;11.45;;
38725;SDS011;24474;48.906;8.808;2022-10-19T10:42:57;15.60;;;10.90;;
38725;SDS011;24474;48.906;8.808;2022-10-19T10:45:30;14.95;;;11.98;;
38725;SDS011;24474;48.906;8.808;2022-10-19T10:48:10;15.45;;;11.27;;
38725;SDS011;24474;48.906;8.808;2022-10-19T10:50:42;13.45;;;10.63;;
38725;SDS011;24474;48.906;8.808;2022-10-19T10:53:28;11.60;;;10.40;;
38725;SDS011;24474;48.906;8.808;2022-10-19T10:55:57;12.35;;;9.98;;
38725;SDS011;24474;48.906;8.808;2022-10-19T10:58:31;12.18;;;10.25;;
38725;SDS011;24474;48.906;8.808;2022-10-19T11:01:14;13.93;;;9.85;;
38725;SDS011;24474;48.906;8.808;2022-10-19T11:03:48;11.20;;;9.48;;
38725;SDS011;24474;48.906;8.808;2022-10-19T11:06:21;14.05;;;9.45;;
38725;SDS011;24474;48.906;8.808;2022-10-19T11:08:51;12.98;;;8.50;;
38725;SDS011;24474;48.906;8.808;2022-10-19T11:17:00;8.48;;;7.00;;
38725;SDS011;24474;48.906;8.808;2022-10-19T11:34:01;6.97;;;4.80;;
38725;SDS011;24474;48.906;8.808;2022-10-19T11:36:45;6.38;;;4.20;;
38725;SDS011;24474;48.906;8.808;2022-10-19T12:14:35;3.47;;;2.78;;
38725;SDS011;24474;48.906;8.808;2022-10-19T12:17:05;6.00;;;3.00;;
38725;SDS011;24474;48.906;8.808;2022-10-19T12:19:40;4.82;;;3.10;;
38725;SDS011;24474;48.906;8.808;2022-10-19T12:22:18;3.58;;;2.47;;
38725;SDS011;24474;48.906;8.808;2022-10-19T12:24:47;5.43;;;2.70;;
38725;SDS011;24474;48.906;8.808;2022-10-19T12:27:15;5.25;;;2.72;;
38725;SDS011;24474;48.906;8.808;2022-10-19T12:30:04;4.15;;;2.72;;
38725;SDS011;24474;48.906;8.808;2022-10-19T12:33:02;3.67;;;2.63;;
38725;SDS011;24474;48.906;8.808;2022-10-19T12:38:18;3.45;;;2.55;;
38725;SDS011;24474;48.906;8.808;2022-10-19T12:43:56;2.65;;;2.30;;
38725;SDS011;24474;48.906;8.808;2022-10-19T12:46:50;3.85;;;2.53;;
38725;SDS011;24474;48.906;8.808;2022-10-19T12:51:55;4.47;;;2.40;;
38725;SDS011;24474;48.906;8.808;2022-10-19T12:54:23;3.63;;;2.35;;
38725;SDS011;24474;48.906;8.808;2022-10-19T12:56:52;2.55;;;2.00;;
38725;SDS011;24474;48.906;8.808;2022-10-19T12:59:31;3.33;;;2.17;;
38725;SDS011;24474;48.906;8.808;2022-10-19T13:02:01;3.40;;;2.30;;
38725;SDS011;24474;48.906;8.808;2022-10-19T13:04:33;4.70;;;2.38;;
38725;SDS011;24474;48.906;8.808;2022-10-19T13:07:03;4.75;;;2.40;;
38725;SDS011;24474;48.906;8.808;2022-10-19T13:17:37;4.10;;;2.45;;
38725;SDS011;24474;48.906;8.808;2022-10-19T13:25:41;3.45;;;2.30;;
38725;SDS011;24474;48.906;8.808;2022-10-19T13:38:35;5.70;;;2.67;;
38725;SDS011;24474;48.906;8.808;2022-10-19T13:44:16;4.18;;;2.40;;
38725;SDS011;24474;48.906;8.808;2022-10-19T14:07:25;5.65;;;3.33;;
38725;SDS011;24474;48.906;8.808;2022-10-19T14:10:01;5.78;;;3.28;;
38725;SDS011;24474;48.906;8.808;2022-10-19T14:12:56;4.57;;;3.20;;
38725;SDS011;24474;48.906;8.808;2022-10-19T14:15:26;4.38;;;2.88;;
38725;SDS011;24474;48.906;8.808;2022-10-19T14:17:54;6.63;;;3.20;;
38725;SDS011;24474;48.906;8.808;2022-10-19T14:20:35;4.07;;;2.60;;
38725;SDS011;24474;48.906;8.808;2022-10-19T14:25:52;3.60;;;3.08;;
38725;SDS011;24474;48.906;8.808;2022-10-19T14:28:19;6.65;;;3.10;;
38725;SDS011;24474;48.906;8.808;2022-10-19T14:30:53;5.90;;;3.00;;
38725;SDS011;24474;48.906;8.808;2022-10-19T14:33:32;4.63;;;3.28;;
38725;SDS011;24474;48.906;8.808;2022-10-19T14:36:02;6.13;;;2.70;;
38725;SDS011;24474;48.906;8.808;2022-10-19T14:38:39;4.38;;;3.03;;
38725;SDS011;24474;48.906;8.808;2022-10-19T14:43:55;5.35;;;3.08;;
38725;SDS011;24474;48.906;8.808;2022-10-19T14:46:24;5.07;;;2.90;;
38725;SDS011;24474;48.906;8.808;2022-10-19T14:48:56;4.85;;;3.17;;
38725;SDS011;24474;48.906;8.808;2022-10-19T14:54:34;4.50;;;3.58;;
38725;SDS011;24474;48.906;8.808;2022-10-19T14:57:17;4.55;;;3.08;;
38725;SDS011;24474;48.906;8.808;2022-10-19T14:59:49;5.80;;;3.35;;
38725;SDS011;24474;48.906;8.808;2022-10-19T15:02:35;5.47;;;3.35;;
38725;SDS011;24474;48.906;8.808;2022-10-19T15:05:04;5.60;;;2.83;;
38725;SDS011;24474;48.906;8.808;2022-10-19T15:07:42;3.50;;;2.70;;
38725;SDS011;24474;48.906;8.808;2022-10-19T15:12:44;4.72;;;2.60;;
38725;SDS011;24474;48.906;8.808;2022-10-19T15:15:15;3.30;;;2.55;;
38725;SDS011;24474;48.906;8.808;2022-10-19T15:22:59;5.22;;;2.50;;
38725;SDS011;24474;48.906;8.808;2022-10-19T15:25:57;3.40;;;2.53;;
38725;SDS011;24474;48.906;8.808;2022-10-19T15:28:34;6.97;;;2.70;;
38725;SDS011;24474;48.906;8.808;2022-10-19T15:31:35;2.83;;;2.38;;
38725;SDS011;24474;48.906;8.808;2022-10-19T15:33:59;5.30;;;2.38;;
38725;SDS011;24474;48.906;8.808;2022-10-19T15:36:27;6.40;;;3.85;;
38725;SDS011;24474;48.906;8.808;2022-10-19T15:39:01;6.47;;;2.85;;
38725;SDS011;24474;48.906;8.808;2022-10-19T15:41:33;3.72;;;2.40;;
38725;SDS011;24474;48.906;8.808;2022-10-19T15:44:01;8.23;;;2.75;;
38725;SDS011;24474;48.906;8.808;2022-10-19T15:52:23;7.63;;;2.60;;
38725;SDS011;24474;48.906;8.808;2022-10-19T15:54:55;4.47;;;2.72;;
38725;SDS011;24474;48.906;8.808;2022-10-19T15:57:29;5.05;;;2.80;;
38725;SDS011;24474;48.906;8.808;2022-10-19T15:59:57;4.32;;;3.28;;
38725;SDS011;24474;48.906;8.808;2022-10-19T16:02:26;4.85;;;3.00;;
38725;SDS011;24474;48.906;8.808;2022-10-19T16:04:52;6.05;;;3.40;;
38725;SDS011;24474;48.906;8.808;2022-10-19T16:07:24;3.80;;;2.78;;
38725;SDS011;24474;48.906;8.808;2022-10-19T16:09:52;6.68;;;3.30;;
38725;SDS011;24474;48.906;8.808;2022-10-19T16:12:19;4.15;;;3.10;;
38725;SDS011;24474;48.906;8.808;2022-10-19T16:14:48;7.07;;;3.40;;
38725;SDS011;24474;48.906;8.808;2022-10-19T16:17:14;5.80;;;3.70;;
38725;SDS011;24474;48.906;8.808;2022-10-19T16:19:40;8.32;;;3.40;;
38725;SDS011;24474;48.906;8.808;2022-10-19T16:22:07;5.72;;;3.35;;
38725;SDS011;24474;48.906;8.808;2022-10-19T16:24:35;3.28;;;2.63;;
38725;SDS011;24474;48.906;8.808;2022-10-19T16:27:02;4.63;;;2.78;;
38725;SDS011;24474;48.906;8.808;2022-10-19T16:29:28;4.32;;;3.28;;
38725;SDS011;24474;48.906;8.808;2022-10-19T16:31:54;8.25;;;4.55;;
38725;SDS011;24474;48.906;8.808;2022-10-19T16:34:21;7.38;;;4.03;;
38725;SDS011;24474;48.906;8.808;2022-10-19T16:36:46;6.20;;;3.78;;
38725;SDS011;24474;48.906;8.808;2022-10-19T16:39:13;6.45;;;3.70;;
38725;SDS011;24474;48.906;8.808;2022-10-19T16:41:41;7.13;;;4.13;;
38725;SDS011;24474;48.906;8.808;2022-10-19T16:44:11;7.43;;;3.88;;
38725;SDS011;24474;48.906;8.808;2022-10-19T16:46:39;6.50;;;3.63;;
38725;SDS011;24474;48.906;8.808;2022-10-19T16:49:06;8.05;;;3.58;;
38725;SDS011;24474;48.906;8.808;2022-10-19T16:51:41;3.88;;;3.17;;
38725;SDS011;24474;48.906;8.808;2022-10-19T16:54:08;6.10;;;4.07;;
38725;SDS011;24474;48.906;8.808;2022-10-19T16:56:36;7.88;;;3.40;;
38725;SDS011;24474;48.906;8.808;2022-10-19T16:59:09;5.10;;;3.30;;
38725;SDS011;24474;48.906;8.808;2022-10-19T17:01:38;5.13;;;3.50;;
38725;SDS011;24474;48.906;8.808;2022-10-19T17:04:05;5.50;;;3.20;;
38725;SDS011;24474;48.906;8.808;2022-10-19T17:06:32;6.03;;;3.50;;
38725;SDS011;24474;48.906;8.808;2022-10-19T17:08:59;4.15;;;3.05;;
38725;SDS011;24474;48.906;8.808;2022-10-19T17:11:32;6.20;;;3.50;;
38725;SDS011;24474;48.906;8.808;2022-10-19T17:14:04;5.70;;;3.67;;
38725;SDS011;24474;48.906;8.808;2022-10-19T17:16:33;7.45;;;3.70;;
38725;SDS011;24474;48.906;8.808;2022-10-19T17:19:02;5.07;;;3.95;;
38725;SDS011;24474;48.906;8.808;2022-10-19T17:21:32;5.15;;;3.72;;
38725;SDS011;24474;48.906;8.808;2022-10-19T17:24:06;5.75;;;4.00;;
38725;SDS011;24474;48.906;8.808;2022-10-19T17:26:38;7.13;;;4.13;;
38725;SDS011;24474;48.906;8.808;2022-10-19T17:29:07;6.05;;;4.28;;
38725;SDS011;24474;48.906;8.808;2022-10-19T17:31:33;6.93;;;4.20;;
38725;SDS011;24474;48.906;8.808;2022-10-19T17:34:00;6.82;;;4.32;;
38725;SDS011;24474;48.906;8.808;2022-10-19T17:36:29;8.07;;;4.35;;
38725;SDS011;24474;48.906;8.808;2022-10-19T17:38:57;5.65;;;4.00;;
38725;SDS011;24474;48.906;8.808;2022-10-19T17:41:31;6.47;;;4.30;;
38725;SDS011;24474;48.906;8.808;2022-10-19T17:44:00;10.02;;;4.30;;
38725;SDS011;24474;48.906;8.808;2022-10-19T17:46:30;6.17;;;4.30;;
38725;SDS011;24474;48.906;8.808;2022-10-19T17:48:58;6.32;;;4.45;;
38725;SDS011;24474;48.906;8.808;2022-10-19T17:51:27;8.23;;;4.95;;
38725;SDS011;24474;48.906;8.808;2022-10-19T17:53:59;8.20;;;6.38;;
38725;SDS011;24474;48.906;8.808;2022-10-19T17:56:28;8.38;;;6.18;;
38725;SDS011;24474;48.906;8.808;2022-10-19T17:58:54;7.05;;;5.45;;
38725;SDS011;24474;48.906;8.808;2022-10-19T18:01:22;9.30;;;7.20;;
38725;SDS011;24474;48.906;8.808;2022-10-19T18:03:49;10.82;;;7.97;;
38725;SDS011;24474;48.906;8.808;2022-10-19T18:08:46;6.47;;;4.95;;
38725;SDS011;24474;48.906;8.808;2022-10-19T18:11:14;9.13;;;5.95;;
38725;SDS011;24474;48.906;8.808;2022-10-19T18:13:42;9.65;;;6.60;;